Time;durP1;ratioP1;P1;durP2;ratioP2;P2;SDS_P1;SDS_P2;PMS_P1;PMS_P2;Temp;Humidity;BMP_temperature;BMP_pressure;BME280_temperature;BME280_humidity;BME280_pressure;Samples;Min_cycle;Max_cycle;Signal;HPM_P1;HPM_P2
2022/06/20 00:00:11;;;;;;;;;33.75;28.75;;;;;20.86;61.13;100635.00;5031442;28;45147;-72
2022/06/20 00:02:42;;;;;;;;;24.50;24.25;;;;;20.89;60.67;100653.06;5031180;28;45557;-69
2022/06/20 00:05:12;;;;;;;;;38.50;30.25;;;;;20.89;61.09;100672.09;5031343;28;45016;-71
2022/06/20 00:07:38;;;;;;;;;36.00;27.00;;;;;20.83;61.21;100647.75;5030899;28;45009;-69
2022/06/20 00:10:03;;;;;;;;;38.25;27.75;;;;;20.76;61.52;100655.09;5030773;28;45281;-70
2022/06/20 00:12:29;;;;;;;;;34.00;27.00;;;;;20.57;62.44;100625.53;5030575;28;45682;-70
2022/06/20 00:14:57;;;;;;;;;31.00;26.25;;;;;20.70;62.37;100636.19;5029896;28;45217;-70
2022/06/20 00:17:22;;;;;;;;;34.25;28.50;;;;;20.93;61.53;100655.69;5029416;28;45503;-71
2022/06/20 00:19:48;;;;;;;;;26.75;24.25;;;;;20.94;61.50;100671.06;5029788;28;45092;-72
2022/06/20 00:22:14;;;;;;;;;32.25;28.25;;;;;21.03;61.62;100671.81;5027388;28;46948;-70
2022/06/20 00:24:40;;;;;;;;;28.25;25.50;;;;;21.02;62.03;100678.16;5035114;28;45216;-72
2022/06/20 00:27:06;;;;;;;;;31.50;26.75;;;;;21.01;61.49;100673.69;5031848;28;45638;-71
2022/06/20 00:29:40;;;;;;;;;25.50;24.50;;;;;21.01;61.61;100660.09;5030091;28;44711;-72
2022/06/20 00:32:08;;;;;;;;;26.25;24.25;;;;;21.18;61.00;100682.41;5031784;28;46082;-73
2022/06/20 00:34:34;;;;;;;;;27.75;23.75;;;;;21.17;61.15;100653.47;5030551;28;45008;-69
2022/06/20 00:37:00;;;;;;;;;29.25;26.25;;;;;21.00;61.04;100596.72;5031229;28;45207;-70
2022/06/20 00:39:26;;;;;;;;;29.00;25.50;;;;;21.16;61.43;100616.34;5027283;28;45176;-71
2022/06/20 00:41:51;;;;;;;;;28.50;28.50;;;;;21.08;61.21;100602.88;5030581;28;45593;-70
2022/06/20 00:44:26;;;;;;;;;30.00;24.25;;;;;21.10;62.36;100592.91;5027332;28;45274;-72
2022/06/20 00:46:56;;;;;;;;;22.50;19.75;;;;;20.97;62.19;100564.19;5032247;28;45317;-70
2022/06/20 00:49:28;;;;;;;;;27.25;23.25;;;;;21.16;62.01;100614.50;5032465;28;45391;-69
2022/06/20 00:52:28;;;;;;;;;29.00;25.75;;;;;21.18;61.71;100628.06;5028573;28;45676;-70
2022/06/20 00:54:56;;;;;;;;;26.25;24.75;;;;;21.23;61.22;100656.03;5024732;28;45012;-70
2022/06/20 00:57:28;;;;;;;;;24.75;21.75;;;;;21.17;60.92;100656.16;5030998;28;45086;-71
2022/06/20 01:00:00;;;;;;;;;29.50;22.25;;;;;21.13;61.57;100654.41;5026872;28;45009;-70
2022/06/20 01:02:32;;;;;;;;;24.75;23.25;;;;;21.22;60.34;100677.78;5028804;28;45581;-69
2022/06/20 01:05:01;;;;;;;;;29.25;23.75;;;;;21.28;60.64;100694.00;5030262;28;45270;-70
2022/06/20 01:07:50;;;;;;;;;23.25;21.75;;;;;21.32;61.02;100707.50;5030849;28;45211;-70
2022/06/20 01:10:17;;;;;;;;;22.75;22.75;;;;;21.24;61.28;100690.44;5026505;28;45376;-70
2022/06/20 01:13:11;;;;;;;;;25.25;21.50;;;;;21.32;60.85;100712.06;5027162;28;45823;-72
2022/06/20 01:15:40;;;;;;;;;23.00;21.75;;;;;21.29;60.73;100702.13;5028045;28;45162;-70
2022/06/20 01:18:20;;;;;;;;;23.50;22.50;;;;;21.22;60.53;100685.94;5028082;28;44957;-69
2022/06/20 01:20:48;;;;;;;;;23.50;21.75;;;;;21.31;60.73;100685.78;5027502;28;45308;-71
2022/06/20 01:23:13;;;;;;;;;23.50;23.00;;;;;21.35;60.87;100690.25;5027580;28;47762;-71
2022/06/20 01:25:44;;;;;;;;;28.50;25.00;;;;;21.35;60.98;100676.66;5028588;28;45156;-69
2022/06/20 01:28:14;;;;;;;;;28.75;24.75;;;;;21.33;60.63;100659.47;5029541;28;46333;-69
2022/06/20 01:30:43;;;;;;;;;28.00;23.00;;;;;21.34;60.83;100650.41;5030187;28;45054;-68
2022/06/20 01:33:11;;;;;;;;;24.75;20.75;;;;;21.07;61.34;100603.84;5023078;28;47325;-71
2022/06/20 01:38:21;;;;;;;;;22.25;21.25;;;;;21.27;61.91;100608.88;5030411;28;45094;-70
2022/06/20 01:43:34;;;;;;;;;30.00;23.25;;;;;21.19;61.23;100570.09;5027912;28;45462;-71
2022/06/20 01:46:04;;;;;;;;;24.00;21.75;;;;;21.19;61.45;100555.63;5028242;28;45234;-71
2022/06/20 01:48:32;;;;;;;;;23.50;21.50;;;;;21.10;61.77;100537.66;5030177;28;45836;-69
2022/06/20 01:50:58;;;;;;;;;29.75;25.25;;;;;21.05;61.97;100521.50;5032819;28;45328;-70
2022/06/20 01:53:31;;;;;;;;;28.00;22.25;;;;;21.11;62.41;100507.75;5032656;28;45986;-69
2022/06/20 01:55:58;;;;;;;;;20.25;19.50;;;;;20.88;62.07;100451.19;5032578;28;45273;-70
2022/06/20 01:58:37;;;;;;;;;19.50;19.50;;;;;21.03;61.93;100449.09;5032125;28;45102;-70
2022/06/20 02:01:04;;;;;;;;;26.50;24.25;;;;;21.00;62.12;100417.44;5030249;28;45279;-70
2022/06/20 02:03:33;;;;;;;;;31.50;26.75;;;;;20.95;62.03;100355.09;5032930;28;45365;-70
2022/06/20 02:06:00;;;;;;;;;28.75;22.75;;;;;20.68;62.76;100261.59;5032833;28;45153;-70
2022/06/20 02:08:26;;;;;;;;;25.00;22.00;;;;;20.64;63.16;100250.84;5033049;28;45329;-70
2022/06/20 02:11:04;;;;;;;;;23.50;22.50;;;;;20.51;63.28;100229.38;5033463;28;44933;-70
2022/06/20 02:13:34;;;;;;;;;24.00;21.75;;;;;20.48;63.32;100217.72;5034094;28;45505;-70
2022/06/20 02:16:03;;;;;;;;;25.00;21.75;;;;;20.30;63.88;100236.19;5030419;28;45129;-74
2022/06/20 02:18:32;;;;;;;;;20.25;19.75;;;;;20.29;64.19;100291.34;5027277;28;45278;-70
2022/06/20 02:21:01;;;;;;;;;28.25;24.75;;;;;20.27;64.36;100354.72;5030398;28;45151;-70
2022/06/20 02:23:32;;;;;;;;;23.75;23.00;;;;;20.05;64.82;100366.00;5031930;28;45290;-69
2022/06/20 02:26:00;;;;;;;;;29.75;22.50;;;;;20.11;64.81;100392.97;5031578;28;45522;-70
2022/06/20 02:28:46;;;;;;;;;25.50;24.25;;;;;20.05;65.10;100412.97;5032694;28;45115;-71
2022/06/20 02:31:12;;;;;;;;;18.50;17.75;;;;;19.96;64.88;100409.53;5030613;28;46240;-70
2022/06/20 02:33:38;;;;;;;;;23.50;18.75;;;;;20.16;64.93;100456.19;5031525;28;45758;-71
2022/06/20 02:36:05;;;;;;;;;19.50;18.50;;;;;20.19;64.49;100466.06;5034006;28;45289;-69
2022/06/20 02:38:32;;;;;;;;;23.50;22.25;;;;;20.36;64.70;100501.03;5033506;28;45039;-70
2022/06/20 02:40:58;;;;;;;;;17.25;15.00;;;;;20.48;64.58;100503.53;5033471;28;45241;-70
2022/06/20 02:43:36;;;;;;;;;22.75;20.75;;;;;20.55;64.24;100515.19;5031359;28;45162;-69
2022/06/20 02:46:07;;;;;;;;;21.75;20.00;;;;;20.61;64.47;100534.06;5030029;28;44949;-71
2022/06/20 02:48:34;;;;;;;;;27.25;22.00;;;;;20.65;64.17;100522.25;5033414;28;45104;-70
2022/06/20 02:51:04;;;;;;;;;21.25;18.75;;;;;20.77;63.62;100540.13;5032772;28;45195;-70
2022/06/20 02:53:44;;;;;;;;;21.50;21.50;;;;;20.79;63.71;100544.59;5032770;28;45530;-70
2022/06/20 02:56:16;;;;;;;;;22.00;22.00;;;;;20.74;63.73;100553.75;5042822;28;45463;-69
2022/06/20 02:58:47;;;;;;;;;31.75;26.75;;;;;20.57;63.91;100519.66;5030982;28;45158;-70
2022/06/20 03:01:21;;;;;;;;;20.25;20.25;;;;;20.84;63.62;100543.59;5030965;28;45003;-70
2022/06/20 03:03:50;;;;;;;;;23.75;23.75;;;;;20.87;63.13;100538.13;5026765;28;46160;-71
2022/06/20 03:06:24;;;;;;;;;25.75;21.75;;;;;20.70;62.95;100525.75;5032749;28;45056;-71
2022/06/20 03:08:50;;;;;;;;;23.00;21.00;;;;;20.82;62.97;100567.19;5030970;28;46501;-71
2022/06/20 03:11:17;;;;;;;;;23.50;21.00;;;;;20.39;62.93;100506.41;5031416;28;45426;-71
2022/06/20 03:13:43;;;;;;;;;24.00;20.25;;;;;20.75;62.52;100577.28;5030549;28;45316;-70
2022/06/20 03:16:09;;;;;;;;;20.25;19.25;;;;;20.81;63.04;100593.47;5031559;28;44953;-72
2022/06/20 03:18:40;;;;;;;;;18.25;17.00;;;;;20.46;62.46;100537.97;5025687;28;45137;-73
2022/06/20 03:21:05;;;;;;;;;23.50;20.75;;;;;20.70;62.48;100600.91;5031428;28;45222;-69
2022/06/20 03:23:33;;;;;;;;;20.00;18.00;;;;;20.75;62.85;100624.31;5031014;28;45420;-70
2022/06/20 03:26:03;;;;;;;;;18.75;16.00;;;;;20.76;62.54;100619.81;5027752;28;45025;-69
2022/06/20 03:28:31;;;;;;;;;22.50;21.00;;;;;20.73;62.53;100633.44;5030544;28;45173;-70
2022/06/20 03:30:58;;;;;;;;;22.50;16.75;;;;;20.78;62.57;100632.41;5023648;28;45205;-73
2022/06/20 03:33:24;;;;;;;;;20.50;19.25;;;;;20.36;62.20;100539.94;5030759;28;46898;-70
2022/06/20 03:35:58;;;;;;;;;24.25;22.25;;;;;20.62;62.04;100622.69;5026151;28;45022;-71
2022/06/20 03:38:25;;;;;;;;;24.00;22.00;;;;;20.58;62.71;100624.59;5027930;28;45038;-71
2022/06/20 03:40:50;;;;;;;;;23.00;19.00;;;;;20.71;62.63;100654.28;5030016;28;44951;-72
2022/06/20 03:43:19;;;;;;;;;27.25;21.50;;;;;20.81;62.55;100661.34;5032647;28;45371;-71
2022/06/20 03:45:48;;;;;;;;;24.50;21.75;;;;;20.81;61.94;100653.19;5028956;28;45274;-71
2022/06/20 03:48:21;;;;;;;;;19.75;18.25;;;;;20.59;61.72;100630.91;5031049;28;44941;-70
2022/06/20 03:50:54;;;;;;;;;20.00;20.00;;;;;20.74;60.86;100671.41;5032888;28;45093;-70
2022/06/20 03:53:30;;;;;;;;;21.00;21.00;;;;;20.68;61.23;100670.63;5033037;28;45957;-76
2022/06/20 03:56:04;;;;;;;;;19.75;18.25;;;;;20.59;61.26;100655.31;5029189;28;45802;-70
2022/06/20 03:58:36;;;;;;;;;23.00;21.75;;;;;20.64;61.14;100664.34;5032143;28;45427;-69
2022/06/20 04:01:10;;;;;;;;;25.75;23.25;;;;;20.34;61.40;100616.84;5031438;28;45336;-70
2022/06/20 04:03:46;;;;;;;;;22.50;20.75;;;;;20.55;61.55;100650.88;5032556;28;45365;-70
2022/06/20 04:06:19;;;;;;;;;23.75;21.75;;;;;20.48;61.74;100639.22;5030403;28;45178;-69
2022/06/20 04:11:42;;;;;;;;;26.00;21.50;;;;;20.63;61.08;100678.84;5031449;28;45347;-70
2022/06/20 04:14:17;;;;;;;;;25.50;23.50;;;;;20.46;61.16;100665.50;5028431;28;45768;-73
2022/06/20 04:16:51;;;;;;;;;24.00;22.00;;;;;20.63;61.10;100695.13;5030766;28;45041;-69
2022/06/20 04:19:29;;;;;;;;;22.25;22.25;;;;;20.65;60.89;100695.97;5030947;28;45197;-71
2022/06/20 04:22:01;;;;;;;;;21.50;17.50;;;;;20.64;60.65;100698.72;5030503;28;45184;-68
2022/06/20 04:24:54;;;;;;;;;26.00;23.75;;;;;20.64;60.27;100707.78;5026098;28;45727;-70
2022/06/20 04:27:33;;;;;;;;;23.75;20.75;;;;;20.53;60.37;100691.63;5029353;28;45249;-69
2022/06/20 04:30:04;;;;;;;;;26.00;23.50;;;;;20.57;60.19;100696.09;5029054;28;45231;-68
2022/06/20 04:33:11;;;;;;;;;24.25;23.25;;;;;20.43;60.05;100674.59;5032206;28;45288;-71
2022/06/20 04:35:43;;;;;;;;;26.25;24.50;;;;;20.40;59.80;100684.59;5031009;28;45799;-70
2022/06/20 04:38:24;;;;;;;;;23.50;20.75;;;;;20.56;60.11;100715.13;5029586;28;45244;-72
2022/06/20 04:40:59;;;;;;;;;25.75;21.75;;;;;20.31;60.20;100672.06;5032194;28;45077;-70
2022/06/20 04:43:44;;;;;;;;;30.25;25.25;;;;;20.52;59.93;100711.53;5028377;28;45421;-69
2022/06/20 04:46:21;;;;;;;;;23.25;18.25;;;;;20.55;59.94;100714.19;5020486;28;45157;-70
2022/06/20 04:48:49;;;;;;;;;22.25;21.25;;;;;20.43;59.62;100709.84;5029079;28;45199;-77
2022/06/20 04:51:18;;;;;;;;;23.50;20.25;;;;;20.59;59.29;100736.75;5031584;28;45009;-69
2022/06/20 04:53:46;;;;;;;;;23.25;19.25;;;;;20.58;59.74;100743.13;5031864;28;45717;-70
2022/06/20 04:56:15;;;;;;;;;23.75;21.50;;;;;20.56;59.23;100739.56;5031797;28;45452;-70
2022/06/20 04:58:52;;;;;;;;;27.25;26.25;;;;;20.53;59.58;100753.16;5028569;28;45365;-69
2022/06/20 05:01:19;;;;;;;;;24.25;22.75;;;;;20.53;59.96;100756.75;5029983;28;45141;-74
2022/06/20 05:03:49;;;;;;;;;23.75;21.00;;;;;20.57;59.55;100755.81;5027619;28;45216;-71
2022/06/20 05:06:20;;;;;;;;;31.00;25.50;;;;;20.18;59.70;100690.34;5029694;28;45230;-71
2022/06/20 05:08:51;;;;;;;;;22.75;21.50;;;;;20.51;59.49;100757.69;5024776;28;45753;-69
2022/06/20 05:11:27;;;;;;;;;24.00;23.75;;;;;20.52;59.08;100770.34;5031038;28;45012;-69
2022/06/20 05:14:10;;;;;;;;;20.50;19.50;;;;;20.52;58.75;100767.63;5029135;28;45234;-73
2022/06/20 05:16:42;;;;;;;;;15.00;15.00;;;;;20.56;58.89;100770.28;5025526;28;45812;-68
2022/06/20 05:19:18;;;;;;;;;19.50;19.25;;;;;20.56;58.83;100766.69;5029374;28;44882;-71
2022/06/20 05:21:47;;;;;;;;;30.00;27.50;;;;;20.40;59.14;100747.88;5029043;28;44942;-70
2022/06/20 05:24:18;;;;;;;;;19.50;18.50;;;;;20.36;58.53;100738.00;5030049;28;46397;-70
2022/06/20 05:26:48;;;;;;;;;22.75;20.75;;;;;20.49;58.58;100754.09;5033647;28;45903;-68
2022/06/20 05:29:23;;;;;;;;;28.25;21.50;;;;;20.61;58.60;100759.38;5033779;28;45144;-71
2022/06/20 05:31:53;;;;;;;;;23.50;19.00;;;;;20.50;57.90;100748.66;5031184;28;45254;-69
2022/06/20 05:34:38;;;;;;;;;25.25;18.50;;;;;20.59;59.02;100761.19;5032715;28;45285;-71
2022/06/20 05:37:13;;;;;;;;;20.50;17.50;;;;;20.43;58.65;100766.84;5034110;28;47100;-70
2022/06/20 05:39:53;;;;;;;;;23.50;20.25;;;;;20.53;58.35;100773.03;5031841;28;45133;-70
2022/06/20 05:42:20;;;;;;;;;14.50;13.75;;;;;20.54;57.81;100776.66;5032929;28;45130;-70
2022/06/20 05:44:46;;;;;;;;;16.50;15.75;;;;;20.53;58.08;100791.16;5032921;28;45212;-69
2022/06/20 05:47:21;;;;;;;;;13.50;13.50;;;;;20.46;58.16;100794.84;5033532;28;45278;-69
2022/06/20 05:50:14;;;;;;;;;19.25;15.00;;;;;20.55;58.43;100809.19;5027697;28;46240;-70
2022/06/20 05:52:41;;;;;;;;;17.50;17.50;;;;;20.49;58.21;100805.69;5028808;28;45198;-69
2022/06/20 05:55:17;;;;;;;;;24.75;22.75;;;;;20.43;58.09;100818.41;5031918;28;45307;-70
2022/06/20 05:57:47;;;;;;;;;24.00;20.50;;;;;20.25;58.73;100807.81;5030138;28;46134;-71
2022/06/20 06:00:16;;;;;;;;;16.00;16.00;;;;;20.34;59.15;100828.47;5031405;28;45248;-71
2022/06/20 06:02:54;;;;;;;;;14.75;12.50;;;;;20.32;58.57;100827.63;5031148;28;45020;-70
2022/06/20 06:05:33;;;;;;;;;18.00;15.75;;;;;20.31;57.94;100829.44;5033236;28;45131;-71
2022/06/20 06:08:02;;;;;;;;;23.75;20.75;;;;;20.28;58.18;100840.31;5033538;28;45141;-70
2022/06/20 06:10:57;;;;;;;;;14.67;11.67;;;;;20.27;58.30;100833.09;5026913;28;46565;-68
2022/06/20 06:14:01;;;;;;;;;14.25;12.25;;;;;20.32;58.11;100830.31;4989420;28;44968;-69
2022/06/20 06:16:48;;;;;;;;;15.50;15.00;;;;;20.25;58.29;100815.94;5012575;28;45511;-70
2022/06/20 06:19:28;;;;;;;;;17.75;16.00;;;;;20.01;57.83;100766.50;5031317;28;45322;-70
2022/06/20 06:21:58;;;;;;;;;14.50;12.00;;;;;20.43;58.13;100839.25;5028700;28;45324;-70
2022/06/20 06:24:24;;;;;;;;;11.75;10.25;;;;;20.33;57.16;100818.56;5031397;28;45112;-69
2022/06/20 06:26:54;;;;;;;;;15.75;15.75;;;;;20.56;57.23;100854.44;5030542;28;45099;-70
2022/06/20 06:29:39;;;;;;;;;18.75;13.25;;;;;20.51;56.95;100861.75;5029693;28;45214;-70
2022/06/20 06:32:16;;;;;;;;;16.00;15.75;;;;;20.33;57.69;100833.03;5020551;28;45105;-71
2022/06/20 06:35:03;;;;;;;;;16.00;15.75;;;;;20.52;57.14;100859.91;5024563;28;45433;-76
2022/06/20 06:37:50;;;;;;;;;12.75;11.50;;;;;20.49;57.20;100851.81;5032373;28;45246;-70
2022/06/20 06:40:49;;;;;;;;;14.75;13.50;;;;;20.71;57.10;100879.63;5029928;28;45754;-70
2022/06/20 06:43:30;;;;;;;;;18.75;10.75;;;;;20.65;56.65;100861.59;5013570;28;45786;-69
2022/06/20 06:46:00;;;;;;;;;13.75;11.50;;;;;20.66;56.15;100857.97;5005288;28;45691;-70
2022/06/20 06:48:37;;;;;;;;;12.00;11.50;;;;;20.77;56.26;100877.72;5013868;28;46216;-72
2022/06/20 06:51:02;;;;;;;;;26.50;24.25;;;;;20.81;56.11;100889.44;5010479;28;45466;-80
2022/06/20 06:53:54;;;;;;;;;14.00;13.50;;;;;20.61;55.77;100855.28;5008920;28;45434;-71
2022/06/20 06:56:32;;;;;;;;;17.00;12.75;;;;;20.82;55.76;100893.94;5010368;28;45559;-73
2022/06/20 06:59:03;;;;;;;;;16.33;12.33;;;;;20.89;55.43;100898.38;5009771;28;45436;-70
2022/06/20 07:01:57;;;;;;;;;20.25;15.00;;;;;20.92;55.10;100900.13;5008390;28;46233;-77
2022/06/20 07:04:26;;;;;;;;;14.00;12.00;;;;;20.94;54.98;100907.34;5015540;28;45428;-75
2022/06/20 07:06:59;;;;;;;;;11.25;11.25;;;;;20.80;54.64;100887.63;5016682;28;45292;-69
2022/06/20 07:09:33;;;;;;;;;14.67;12.67;;;;;20.65;54.46;100871.56;5011450;28;45537;-73
2022/06/20 07:12:07;;;;;;;;;17.00;13.00;;;;;20.66;55.03;100884.22;5015972;28;46292;-69
2022/06/20 07:14:40;;;;;;;;;14.50;13.25;;;;;20.79;55.19;100916.63;5017069;28;45369;-69
2022/06/20 07:17:11;;;;;;;;;13.67;11.67;;;;;20.88;55.24;100928.28;5017104;28;45529;-72
2022/06/20 07:19:42;;;;;;;;;13.33;12.00;;;;;20.86;54.93;100920.16;5015238;28;45575;-70
2022/06/20 07:22:12;;;;;;;;;11.50;11.00;;;;;20.80;55.01;100921.13;5014978;28;45427;-69
2022/06/20 07:24:39;;;;;;;;;14.25;14.00;;;;;20.64;55.09;100900.53;5014846;28;45452;-69
2022/06/20 07:27:26;;;;;;;;;17.25;16.25;;;;;20.74;55.21;100929.34;5015177;28;45398;-68
2022/06/20 07:30:02;;;;;;;;;18.00;13.50;;;;;20.50;55.24;100916.94;5012958;28;45594;-70
2022/06/20 07:32:38;;;;;;;;;7.75;7.50;;;;;20.31;55.52;100894.56;5014567;28;46158;-68
2022/06/20 07:35:13;;;;;;;;;47.50;38.00;;;;;20.52;55.91;100936.81;5012189;28;45475;-71
2022/06/20 07:37:47;;;;;;;;;18.00;17.50;;;;;20.37;55.72;100916.19;5011974;28;45353;-67
2022/06/20 07:40:32;;;;;;;;;22.50;18.25;;;;;20.56;55.83;100951.28;5014979;28;45504;-70
2022/06/20 07:43:01;;;;;;;;;18.75;14.25;;;;;20.58;55.20;100947.59;5010334;28;45796;-68
2022/06/20 07:45:37;;;;;;;;;20.00;14.00;;;;;20.48;55.32;100945.03;5013386;28;45303;-73
2022/06/20 07:48:11;;;;;;;;;20.25;17.25;;;;;20.58;55.21;100955.75;5012523;28;46490;-70
2022/06/20 07:50:45;;;;;;;;;20.75;16.75;;;;;20.33;54.92;100916.25;5009211;28;45585;-69
2022/06/20 07:53:20;;;;;;;;;13.00;11.75;;;;;20.37;54.81;100929.75;5006363;28;46591;-69
2022/06/20 07:55:56;;;;;;;;;43.25;36.00;;;;;20.42;55.63;100968.59;5010622;28;45762;-68
2022/06/20 07:58:37;;;;;;;;;19.00;14.50;;;;;20.43;55.77;100966.78;5016765;28;45589;-69
2022/06/20 08:01:19;;;;;;;;;19.00;17.25;;;;;20.37;55.48;100959.59;5010439;28;45524;-68
2022/06/20 08:03:55;;;;;;;;;14.50;12.75;;;;;20.31;55.85;100951.53;5012600;28;45450;-68
2022/06/20 08:06:36;;;;;;;;;18.25;16.75;;;;;20.36;56.06;100973.19;5010764;28;45454;-69
2022/06/20 08:09:13;;;;;;;;;25.00;17.00;;;;;20.27;56.13;100967.88;5009087;28;45530;-69
2022/06/20 08:12:27;;;;;;;;;18.00;16.25;;;;;20.29;56.35;100966.91;5010361;28;45458;-68
2022/06/20 08:14:58;;;;;;;;;16.50;14.50;;;;;20.28;56.72;100976.00;4998727;28;45580;-70
2022/06/20 08:17:25;;;;;;;;;12.00;11.25;;;;;20.12;56.63;100947.22;5011039;28;45724;-73
2022/06/20 08:19:51;;;;;;;;;14.00;14.00;;;;;20.28;56.46;100966.94;5015629;28;45465;-68
2022/06/20 08:22:26;;;;;;;;;22.25;15.25;;;;;20.22;57.41;100968.78;5004975;28;45424;-68
2022/06/20 08:25:01;;;;;;;;;21.00;17.50;;;;;20.32;56.76;100971.44;5008348;28;46687;-68
2022/06/20 08:27:36;;;;;;;;;19.25;16.75;;;;;20.35;56.08;100976.81;5009755;28;45549;-69
2022/06/20 08:30:11;;;;;;;;;16.00;14.75;;;;;20.24;56.55;100963.34;5008710;28;45513;-69
2022/06/20 08:32:45;;;;;;;;;19.75;17.50;;;;;20.30;57.04;100965.13;5007132;28;45433;-72
2022/06/20 08:35:37;;;;;;;;;20.25;16.50;;;;;20.37;56.35;100969.56;5011043;28;45347;-70
2022/06/20 08:38:25;;;;;;;;;22.75;16.50;;;;;20.50;55.99;100970.34;5013323;28;45550;-69
2022/06/20 08:40:50;;;;;;;;;18.00;17.00;;;;;20.53;55.98;100956.72;5012234;28;45415;-70
2022/06/20 08:43:46;;;;;;;;;16.00;16.00;;;;;20.26;55.48;100901.84;5012917;28;46941;-73
2022/06/20 08:46:56;;;;;;;;;29.00;21.75;;;;;20.64;54.94;100957.53;5018962;28;47443;-74
2022/06/20 08:49:37;;;;;;;;;18.50;18.25;;;;;20.69;55.34;100963.81;5008380;28;45526;-73
2022/06/20 08:52:14;;;;;;;;;16.50;16.50;;;;;20.73;54.95;100964.66;5012515;28;45495;-72
2022/06/20 08:54:39;;;;;;;;;24.25;18.50;;;;;20.83;54.86;100968.16;5013371;28;45561;-74
2022/06/20 08:57:21;;;;;;;;;18.25;17.50;;;;;20.95;54.48;100976.16;5012743;28;45422;-73
2022/06/20 09:00:05;;;;;;;;;14.00;14.00;;;;;21.04;54.09;100981.47;5011848;28;45634;-73
2022/06/20 09:02:45;;;;;;;;;21.25;17.00;;;;;21.07;53.84;100991.38;5003363;28;45552;-73
2022/06/20 09:05:37;;;;;;;;;18.25;16.00;;;;;21.06;53.37;101001.38;5012521;28;45612;-73
2022/06/20 09:08:20;;;;;;;;;19.75;14.75;;;;;21.05;53.51;101006.81;5005477;28;46942;-74
2022/06/20 09:11:09;;;;;;;;;19.00;15.33;;;;;21.06;53.34;101005.91;5009930;28;45455;-74
2022/06/20 09:13:58;;;;;;;;;18.75;15.00;;;;;21.02;53.23;101015.00;5004757;28;45479;-72
2022/06/20 09:16:57;;;;;;;;;19.75;16.00;;;;;21.04;53.61;101018.63;5008698;28;45403;-72
2022/06/20 09:19:41;;;;;;;;;21.50;20.50;;;;;21.08;53.57;101017.66;5012416;28;45327;-73
2022/06/20 09:22:49;;;;;;;;;19.50;17.00;;;;;21.11;53.48;101013.06;5008301;28;47442;-73
2022/06/20 09:25:51;;;;;;;;;14.00;12.00;;;;;21.02;53.23;100985.13;5011021;28;45316;-75
2022/06/20 09:28:35;;;;;;;;;19.50;15.25;;;;;21.24;53.45;101011.09;5010911;28;45585;-73
2022/06/20 09:31:06;;;;;;;;;15.50;13.25;;;;;21.25;53.50;101006.53;5010986;28;46545;-72
2022/06/20 09:34:02;;;;;;;;;21.75;20.00;;;;;21.34;52.98;101012.75;5004968;28;45368;-74
2022/06/20 09:36:42;;;;;;;;;21.50;19.25;;;;;21.38;52.97;101018.16;5003350;28;45557;-76
2022/06/20 09:39:19;;;;;;;;;21.25;18.25;;;;;21.42;52.94;101028.97;5006255;28;45555;-72
2022/06/20 09:42:05;;;;;;;;;19.50;17.50;;;;;21.50;52.90;101037.06;5000132;28;46211;-68
2022/06/20 09:44:43;;;;;;;;;14.50;14.50;;;;;21.53;52.42;101031.53;5010809;28;45518;-67
2022/06/20 09:47:23;;;;;;;;;19.75;19.75;;;;;21.59;52.77;101025.16;5010730;28;45601;-67
2022/06/20 09:50:27;;;;;;;;;25.75;19.00;;;;;21.63;52.29;101033.25;5012529;28;45471;-67
2022/06/20 09:53:08;;;;;;;;;18.50;16.25;;;;;21.69;52.15;101033.13;5003781;28;46554;-67
2022/06/20 09:55:48;;;;;;;;;18.25;16.50;;;;;21.76;52.32;101038.47;5009512;28;45570;-68
2022/06/20 09:58:29;;;;;;;;;19.75;19.75;;;;;21.48;51.43;100974.56;5006772;28;45323;-69
2022/06/20 10:01:08;;;;;;;;;20.75;18.75;;;;;21.86;51.24;101038.31;5011343;28;45397;-67
2022/06/20 10:03:43;;;;;;;;;17.50;15.25;;;;;21.83;51.32;101041.09;5021914;28;45343;-68
2022/06/20 10:06:29;;;;;;;;;21.25;20.50;;;;;21.80;51.60;101032.97;5020585;28;44934;-69
2022/06/20 10:09:11;;;;;;;;;17.25;17.25;;;;;21.93;51.52;101050.00;5010913;28;45379;-68
2022/06/20 10:11:47;;;;;;;;;16.00;15.00;;;;;21.98;50.99;101042.66;5010723;28;45647;-70
2022/06/20 10:14:27;;;;;;;;;35.75;31.25;;;;;21.94;51.54;101051.78;5012964;28;46810;-68
2022/06/20 10:17:09;;;;;;;;;18.00;15.50;;;;;21.90;51.11;101042.78;5010696;28;45343;-68
2022/06/20 10:19:48;;;;;;;;;19.67;15.33;;;;;21.98;51.33;101044.50;5014444;28;45398;-68
2022/06/20 10:22:35;;;;;;;;;23.50;20.25;;;;;22.06;51.25;101053.44;5010305;28;45629;-69
2022/06/20 10:25:36;;;;;;;;;17.75;16.00;;;;;22.16;50.93;101049.63;5013061;28;46294;-68
2022/06/20 10:28:12;;;;;;;;;21.25;20.00;;;;;22.29;50.40;101044.00;5010141;28;45421;-69
2022/06/20 10:30:55;;;;;;;;;18.00;15.00;;;;;22.38;50.03;101036.56;5013394;28;45593;-68
2022/06/20 10:33:20;;;;;;;;;20.00;17.00;;;;;22.56;49.90;101039.91;5011411;28;45528;-69
2022/06/20 10:36:15;;;;;;;;;16.00;15.25;;;;;22.59;49.38;101045.28;5007503;28;45602;-71
2022/06/20 10:38:42;;;;;;;;;18.50;18.50;;;;;22.76;49.64;101043.13;5006560;28;46050;-71
2022/06/20 10:41:25;;;;;;;;;23.00;20.75;;;;;22.97;49.13;101049.09;5013144;28;45629;-69
2022/06/20 10:44:15;;;;;;;;;30.50;27.00;;;;;23.21;48.51;101058.59;5014663;28;45473;-70
2022/06/20 10:46:45;;;;;;;;;18.33;18.00;;;;;23.28;48.09;101045.72;5006935;28;46230;-67
2022/06/20 10:49:22;;;;;;;;;18.67;15.33;;;;;23.26;48.07;101040.31;5009881;28;45465;-68
2022/06/20 10:51:56;;;;;;;;;21.00;16.25;;;;;23.30;48.08;101065.72;5009488;28;45596;-66
2022/06/20 10:54:22;;;;;;;;;21.50;20.50;;;;;23.22;47.90;101063.13;5014689;28;45489;-68
2022/06/20 10:56:57;;;;;;;;;16.50;16.50;;;;;23.08;48.32;101059.78;5008238;28;46021;-67
2022/06/20 11:00:01;;;;;;;;;26.00;17.25;;;;;22.80;48.59;101033.97;5013524;28;45285;-68
2022/06/20 11:02:56;;;;;;;;;25.25;21.00;;;;;22.86;48.95;101064.75;5012510;28;45654;-69
2022/06/20 11:05:38;;;;;;;;;20.75;17.25;;;;;22.75;49.18;101067.66;5006754;28;45497;-67
2022/06/20 11:08:12;;;;;;;;;20.50;20.50;;;;;22.76;49.18;101069.47;5012398;28;46019;-68
2022/06/20 11:10:50;;;;;;;;;17.50;17.50;;;;;22.86;49.31;101067.47;5010613;28;45454;-67
2022/06/20 11:13:27;;;;;;;;;19.75;16.75;;;;;23.05;48.92;101065.25;5008090;28;45494;-67
2022/06/20 11:16:10;;;;;;;;;19.50;18.25;;;;;23.19;48.38;101066.81;5014811;28;45490;-68
2022/06/20 11:18:45;;;;;;;;;23.25;20.50;;;;;23.39;48.20;101067.31;5013294;28;45396;-68
2022/06/20 11:21:16;;;;;;;;;16.75;16.25;;;;;23.31;47.42;101053.84;5011791;28;46048;-66
2022/06/20 11:23:50;;;;;;;;;19.75;17.50;;;;;23.51;47.27;101062.50;4998374;28;45533;-68
2022/06/20 11:26:28;;;;;;;;;15.00;13.50;;;;;23.61;47.46;101059.56;5012730;28;45854;-68
2022/06/20 11:29:32;;;;;;;;;41.75;36.75;;;;;23.76;47.22;101064.69;5014522;28;46113;-67
2022/06/20 11:32:38;;;;;;;;;15.25;14.00;;;;;23.87;46.54;101057.19;5004403;28;45541;-68
2022/06/20 11:35:39;;;;;;;;;29.50;24.25;;;;;23.97;46.70;101065.13;5010766;28;45442;-71
2022/06/20 11:38:23;;;;;;;;;18.75;16.00;;;;;24.15;45.90;101069.22;4972442;28;45529;-68
2022/06/20 11:41:01;;;;;;;;;18.67;13.00;;;;;24.17;45.96;101061.91;5003064;28;46277;-68
2022/06/20 11:44:06;;;;;;;;;16.50;15.50;;;;;24.24;45.51;101066.28;5008221;28;45475;-67
2022/06/20 11:47:14;;;;;;;;;14.00;14.00;;;;;24.31;45.90;101064.28;5005511;28;45685;-68
2022/06/20 11:50:12;;;;;;;;;14.75;13.25;;;;;24.50;45.60;101072.88;5011755;28;45677;-68
2022/06/20 11:53:09;;;;;;;;;18.33;15.00;;;;;24.41;45.14;101074.94;5013706;28;46371;-69
2022/06/20 11:55:46;;;;;;;;;17.67;16.67;;;;;24.31;45.54;101069.75;5007474;28;45538;-69
2022/06/20 11:58:16;;;;;;;;;49.75;38.25;;;;;24.28;45.99;101063.41;5014357;28;45438;-67